Time;durP1;ratioP1;P1;durP2;ratioP2;P2;SDS_P1;SDS_P2;PMS_P1;PMS_P2;Temp;Humidity;BMP_temperature;BMP_pressure;BME280_temperature;BME280_humidity;BME280_pressure;Samples;Min_cycle;Max_cycle;Signal;HPM_P1;HPM_P2
2023/01/20 00:01:46;;;;;;;8.83;5.97;;;0.30;91.60;;;3.96;50.87;96920.50;5030642;28;20553;-51
2023/01/20 00:04:17;;;;;;;9.93;5.77;;;0.30;91.70;;;3.96;50.85;96927.59;5030798;28;20076;-45
2023/01/20 00:06:46;;;;;;;10.83;5.73;;;0.30;92.00;;;3.94;50.82;96932.97;5030743;28;20046;-49
2023/01/20 00:09:16;;;;;;;10.63;6.07;;;0.30;92.30;;;3.96;51.29;96930.22;5030500;28;20050;-48
2023/01/20 00:11:44;;;;;;;12.80;7.20;;;0.30;92.40;;;3.94;51.47;96930.34;5030635;28;20393;-48
2023/01/20 00:14:12;;;;;;;11.10;7.50;;;0.30;92.20;;;3.95;51.17;96932.00;5029598;28;20052;-50
2023/01/20 00:16:40;;;;;;;11.53;7.03;;;0.30;92.60;;;3.97;51.13;96934.50;5030619;28;20432;-46
2023/01/20 00:19:13;;;;;;;10.77;6.70;;;0.30;92.10;;;3.98;51.17;96938.81;5030410;28;20497;-47
2023/01/20 00:21:41;;;;;;;12.77;7.63;;;0.30;91.90;;;4.01;50.75;96936.72;5028982;28;20050;-50
2023/01/20 00:24:09;;;;;;;10.80;6.77;;;0.30;91.50;;;4.01;51.21;96941.16;5029559;28;20412;-45
2023/01/20 00:26:37;;;;;;;9.30;6.10;;;0.30;91.40;;;4.00;51.07;96942.97;5029270;28;20046;-50
2023/01/20 00:29:05;;;;;;;11.40;6.80;;;0.30;91.20;;;3.98;51.40;96941.44;5029332;28;20076;-48
2023/01/20 00:31:34;;;;;;;12.17;6.13;;;0.30;91.70;;;4.03;51.05;96947.13;5028918;28;20308;-47
2023/01/20 00:34:02;;;;;;;9.17;6.20;;;0.30;91.60;;;4.06;50.76;96952.13;5030544;28;20061;-49
2023/01/20 00:36:31;;;;;;;8.83;5.47;;;0.40;90.60;;;4.06;50.97;96952.13;5030610;28;20054;-49
2023/01/20 00:39:01;;;;;;;8.70;5.80;;;0.40;90.60;;;4.05;50.67;96950.44;5030336;28;20050;-50
2023/01/20 00:41:29;;;;;;;8.93;5.67;;;0.30;90.50;;;4.03;50.63;96955.00;5030496;28;20409;-50
2023/01/20 00:43:57;;;;;;;9.63;5.27;;;0.30;90.60;;;4.03;51.10;96955.88;5030575;28;20050;-48
2023/01/20 00:46:25;;;;;;;7.47;4.93;;;0.30;90.80;;;3.98;50.79;96952.81;5030459;28;20041;-47
2023/01/20 00:48:53;;;;;;;7.60;5.03;;;0.30;90.80;;;4.00;50.86;96960.56;5030111;28;20088;-45
2023/01/20 00:51:20;;;;;;;12.00;5.27;;;0.30;91.10;;;4.01;50.96;96956.94;5030490;28;20045;-49
2023/01/20 00:53:48;;;;;;;8.70;5.40;;;0.30;91.10;;;4.02;50.44;96971.81;5022694;28;20045;-50
2023/01/20 00:56:16;;;;;;;8.20;5.83;;;0.30;90.80;;;4.00;50.73;96969.31;5028935;28;20053;-48
2023/01/20 00:58:44;;;;;;;9.63;5.60;;;0.20;90.20;;;4.00;50.85;96968.47;5021385;28;20221;-48
2023/01/20 01:01:12;;;;;;;8.30;5.37;;;0.20;90.50;;;4.00;50.57;96971.09;5034137;28;20420;-52
2023/01/20 01:03:40;;;;;;;8.90;5.60;;;0.30;90.40;;;4.00;50.39;96971.09;5034220;28;20493;-47
2023/01/20 01:06:14;;;;;;;8.07;5.67;;;0.30;90.50;;;4.05;50.68;96979.41;5033977;28;20048;-46
2023/01/20 01:08:43;;;;;;;7.03;5.70;;;0.40;90.50;;;4.08;50.51;96984.41;5034235;28;20049;-47
2023/01/20 01:11:12;;;;;;;8.77;5.57;;;0.40;90.80;;;4.11;51.08;96987.63;5032773;28;20057;-48
2023/01/20 01:13:40;;;;;;;9.17;6.30;;;0.50;91.00;;;4.17;50.71;96988.03;5032419;28;20058;-52
2023/01/20 01:16:14;;;;;;;13.57;6.17;;;0.50;90.80;;;4.19;50.79;96986.09;5033896;28;20056;-48
2023/01/20 01:18:42;;;;;;;9.82;6.10;;;0.50;90.80;;;4.20;50.54;96991.22;5032580;28;20057;-48
2023/01/20 01:21:14;;;;;;;11.17;6.10;;;0.50;90.60;;;4.20;50.91;96988.59;5033439;28;20053;-50
2023/01/20 01:23:42;;;;;;;8.57;5.93;;;0.50;90.40;;;4.17;50.83;97002.06;5033767;28;20046;-41
2023/01/20 01:26:11;;;;;;;9.43;6.13;;;0.40;90.20;;;4.13;50.66;97003.28;5033747;28;20042;-40
2023/01/20 01:28:39;;;;;;;8.23;5.23;;;0.40;90.70;;;4.14;50.67;97007.59;5033336;28;20539;-41
2023/01/20 01:31:07;;;;;;;9.10;5.03;;;0.40;90.90;;;4.11;51.03;97011.34;5033225;28;20398;-41
2023/01/20 01:33:36;;;;;;;9.83;5.30;;;0.40;90.90;;;4.13;50.61;97006.75;5033483;28;20052;-42
2023/01/20 01:36:05;;;;;;;11.37;5.63;;;0.40;90.70;;;4.14;50.95;97005.78;5033166;28;20042;-41
2023/01/20 01:38:33;;;;;;;10.30;6.40;;;0.40;90.70;;;4.17;50.95;97017.00;5032023;28;20041;-40
2023/01/20 01:41:01;;;;;;;10.60;7.37;;;0.40;90.20;;;4.14;50.47;97016.31;5033002;28;20052;-41
2023/01/20 01:43:33;;;;;;;10.07;7.17;;;0.40;90.40;;;4.11;50.88;97019.22;5033194;28;20519;-41
2023/01/20 01:46:02;;;;;;;14.93;9.10;;;0.30;90.60;;;4.10;50.44;97030.72;5033142;28;20056;-41
2023/01/20 01:48:44;;;;;;;16.93;9.43;;;0.30;90.60;;;4.08;51.19;97018.66;5033151;28;20045;-40
2023/01/20 01:51:20;;;;;;;15.20;8.80;;;0.30;91.60;;;4.13;50.55;97029.66;5033153;28;20049;-40
2023/01/20 01:54:04;;;;;;;13.10;7.43;;;0.40;90.80;;;4.18;50.65;97030.03;5029585;28;20046;-41
2023/01/20 01:56:32;;;;;;;9.85;6.30;;;0.50;90.60;;;4.20;50.73;97029.91;5033314;28;20052;-41
2023/01/20 01:59:02;;;;;;;9.63;5.90;;;0.50;90.00;;;4.23;50.45;97035.75;5031395;28;20050;-41
2023/01/20 02:01:35;;;;;;;10.43;5.87;;;0.50;90.10;;;4.25;50.58;97031.19;5032608;28;20117;-41
2023/01/20 02:04:13;;;;;;;9.63;5.73;;;0.50;90.50;;;4.30;50.42;97036.03;5031797;28;20052;-41
2023/01/20 02:06:45;;;;;;;9.73;6.90;;;0.60;90.20;;;4.32;50.53;97040.22;5032987;28;20296;-41
2023/01/20 02:09:13;;;;;;;9.27;5.97;;;0.60;90.30;;;4.38;50.91;97037.97;5032665;28;20045;-41
2023/01/20 02:11:51;;;;;;;11.73;6.20;;;0.70;90.30;;;4.40;50.44;97039.53;5031732;28;20053;-42
2023/01/20 02:14:25;;;;;;;8.10;6.00;;;0.70;90.50;;;4.42;50.83;97037.59;5031793;28;20501;-43
2023/01/20 02:17:31;;;;;;;9.17;6.17;;;0.80;90.70;;;4.39;50.90;97040.47;5023835;28;20056;-42
2023/01/20 02:20:33;;;;;;;8.17;5.97;;;0.80;91.00;;;4.36;50.93;97045.19;5024205;28;20050;-42
2023/01/20 02:23:40;;;;;;;7.97;5.43;;;0.70;91.50;;;4.30;50.76;97042.16;5025257;28;20420;-42
2023/01/20 02:27:10;;;;;;;8.67;5.77;;;0.70;91.50;;;4.25;50.76;97040.91;5026548;28;20049;-41
2023/01/20 02:30:10;;;;;;;9.37;6.17;;;0.60;92.40;;;4.29;50.89;97040.47;5014303;28;20404;-41
2023/01/20 02:33:11;;;;;;;7.20;5.13;;;0.60;92.20;;;4.26;50.68;97043.38;5030921;28;20422;-41
2023/01/20 02:35:50;;;;;;;7.43;5.27;;;0.60;92.20;;;4.21;51.35;97045.59;5030053;28;20077;-42
2023/01/20 02:39:02;;;;;;;8.47;5.63;;;0.50;91.80;;;4.12;51.19;97047.22;5031186;28;20052;-41
2023/01/20 02:42:08;;;;;;;8.53;5.20;;;0.40;91.60;;;4.07;51.06;97048.59;5027717;28;20052;-41
2023/01/20 02:44:49;;;;;;;10.27;6.27;;;0.40;91.80;;;4.01;51.08;97044.69;5032027;28;20037;-42
2023/01/20 02:47:27;;;;;;;7.23;5.03;;;0.30;92.20;;;4.02;51.43;97048.19;5032291;28;20045;-41
2023/01/20 02:50:08;;;;;;;8.07;5.43;;;0.30;92.80;;;4.06;51.07;97058.31;5023936;28;20045;-41
2023/01/20 02:52:42;;;;;;;7.97;5.30;;;0.30;93.30;;;4.12;51.06;97062.22;5030721;28;20057;-41
2023/01/20 02:55:15;;;;;;;;;;;0.40;92.80;;;3.99;51.06;97057.16;5032508;28;20519;-41
2023/01/20 02:57:53;;;;;;;6.47;4.17;;;0.30;92.70;;;4.08;50.88;97059.00;5030047;28;20383;-40
2023/01/20 03:00:31;;;;;;;6.40;5.07;;;0.30;93.50;;;4.08;50.71;97063.44;5030506;28;20054;-41
2023/01/20 03:03:04;;;;;;;8.03;5.40;;;0.30;93.50;;;4.08;51.06;97061.66;5031136;28;20061;-41
2023/01/20 03:05:39;;;;;;;9.37;5.47;;;0.30;93.10;;;4.10;51.18;97062.34;5031823;28;20049;-41
2023/01/20 03:08:10;;;;;;;9.90;5.47;;;0.40;93.20;;;4.10;51.22;97066.78;5030566;28;20041;-42
2023/01/20 03:10:41;;;;;;;10.23;5.07;;;0.40;91.80;;;4.04;51.08;97060.25;5031197;28;20061;-41
2023/01/20 03:13:30;;;;;;;9.23;6.23;;;0.30;91.80;;;3.98;50.65;97067.88;5030322;28;20060;-41
2023/01/20 03:16:06;;;;;;;7.37;5.23;;;0.30;92.10;;;3.99;51.01;97066.88;5031607;28;20072;-41
2023/01/20 03:18:37;;;;;;;7.17;5.00;;;0.30;92.00;;;4.01;50.76;97080.75;5031627;28;20052;-41
2023/01/20 03:21:07;;;;;;;10.13;5.87;;;0.30;91.80;;;3.93;51.01;97076.97;5029817;28;20049;-41
2023/01/20 03:23:40;;;;;;;8.97;5.50;;;0.20;91.80;;;3.88;51.30;97086.28;5031503;28;20053;-42
2023/01/20 03:26:11;;;;;;;10.13;5.67;;;0.20;92.40;;;3.88;50.96;97086.28;5030314;28;20050;-41
2023/01/20 03:28:43;;;;;;;7.37;5.57;;;0.20;92.10;;;3.87;50.95;97084.59;5030962;28;20046;-42
2023/01/20 03:31:33;;;;;;;9.07;5.97;;;0.20;92.00;;;3.82;50.95;97085.00;5031208;28;20045;-41
2023/01/20 03:34:09;;;;;;;11.60;5.50;;;0.10;91.80;;;3.74;51.08;97090.94;5030322;28;20057;-41
2023/01/20 03:36:40;;;;;;;9.27;5.97;;;0.00;91.90;;;3.66;51.32;97090.72;5029584;28;20072;-41
2023/01/20 03:39:09;;;;;;;9.07;5.70;;;-0.10;92.40;;;3.66;51.52;97090.72;5029741;28;20049;-41
2023/01/20 03:42:01;;;;;;;7.70;5.70;;;0.00;93.80;;;3.71;51.49;97098.25;5030467;28;20042;-45
2023/01/20 03:45:22;;;;;;;12.20;7.27;;;0.00;94.10;;;3.77;51.45;97096.91;5031078;28;20045;-46
2023/01/20 03:48:17;;;;;;;9.00;5.37;;;0.20;93.20;;;3.78;51.31;97104.66;5029154;28;20068;-50
2023/01/20 03:51:02;;;;;;;9.90;5.83;;;0.20;93.30;;;3.86;51.14;97104.00;5029268;28;20048;-46
2023/01/20 03:54:00;;;;;;;8.20;5.60;;;0.20;92.90;;;3.88;51.07;97110.78;5030063;28;20042;-50
2023/01/20 03:57:02;;;;;;;9.80;5.17;;;0.30;92.10;;;3.85;51.05;97110.22;5025363;28;20408;-46
2023/01/20 03:59:35;;;;;;;9.07;4.77;;;0.30;91.90;;;3.87;50.85;97117.03;5024790;28;20052;-49
2023/01/20 04:02:06;;;;;;;9.37;6.10;;;0.20;91.20;;;3.79;51.12;97113.38;5023152;28;20095;-48
2023/01/20 04:04:38;;;;;;;11.43;6.73;;;0.10;91.80;;;3.73;51.18;97117.38;5013869;28;20052;-48
2023/01/20 04:07:11;;;;;;;10.90;5.83;;;0.00;92.10;;;3.68;51.62;97115.16;5030803;28;20041;-46
2023/01/20 04:09:46;;;;;;;8.70;5.77;;;0.00;92.60;;;3.69;51.16;97111.53;5029502;28;20068;-51
2023/01/20 04:12:14;;;;;;;10.70;5.80;;;-0.10;92.60;;;3.67;51.35;97112.66;5029634;28;20037;-46
2023/01/20 04:14:42;;;;;;;8.07;5.63;;;-0.10;92.60;;;3.63;51.32;97112.06;5030650;28;20405;-52
2023/01/20 04:17:10;;;;;;;10.10;5.53;;;-0.10;92.30;;;3.57;51.32;97112.59;5030849;28;20052;-48
2023/01/20 04:19:38;;;;;;;8.13;5.27;;;-0.20;92.60;;;3.53;51.54;97113.81;5029294;28;20050;-47
2023/01/20 04:22:32;;;;;;;7.83;4.93;;;-0.20;92.70;;;3.49;51.47;97122.91;5030395;28;20424;-49
2023/01/20 04:25:29;;;;;;;9.43;5.15;;;-0.20;93.60;;;3.44;51.51;97125.13;5030839;28;20416;-46
2023/01/20 04:27:57;;;;;;;6.73;4.67;;;-0.20;92.90;;;3.46;51.53;97131.09;5030598;28;20034;-46
2023/01/20 04:30:25;;;;;;;10.07;5.30;;;-0.20;93.20;;;3.38;51.63;97134.38;5030302;28;20049;-51
2023/01/20 04:32:53;;;;;;;9.03;5.30;;;-0.30;93.80;;;3.34;51.70;97123.25;5030271;28;20056;-51
2023/01/20 04:35:21;;;;;;;8.37;5.77;;;-0.40;94.10;;;3.40;51.64;97129.81;5033371;28;20531;-45
2023/01/20 04:37:49;;;;;;;9.57;5.97;;;-0.30;94.80;;;3.41;51.58;97136.72;5034413;28;20049;-48
2023/01/20 04:40:17;;;;;;;8.20;6.13;;;-0.30;94.10;;;3.44;51.80;97135.66;5034161;28;20049;-46
2023/01/20 04:42:44;;;;;;;8.17;5.73;;;-0.20;94.50;;;3.47;51.54;97143.28;5034290;28;20045;-47
2023/01/20 04:45:16;;;;;;;11.57;7.00;;;-0.20;94.20;;;3.52;51.48;97147.19;5034333;28;20053;-48
2023/01/20 04:47:44;;;;;;;11.07;7.43;;;-0.10;94.40;;;3.59;51.43;97147.53;5034374;28;20037;-49
2023/01/20 04:50:13;;;;;;;11.43;7.77;;;-0.10;93.80;;;3.62;51.20;97154.31;5034463;28;20041;-50
2023/01/20 04:52:42;;;;;;;9.63;6.87;;;0.00;93.50;;;3.53;51.57;97154.13;5031215;28;20037;-48
2023/01/20 04:55:10;;;;;;;11.47;5.90;;;-0.10;93.00;;;3.50;51.48;97156.19;5033215;28;20038;-48
2023/01/20 04:57:38;;;;;;;11.03;6.47;;;-0.20;93.30;;;3.46;51.69;97149.50;5032677;28;20097;-50
2023/01/20 05:00:07;;;;;;;9.03;6.50;;;-0.30;94.50;;;3.47;52.02;97161.69;5034002;28;20416;-47
2023/01/20 05:02:35;;;;;;;12.53;7.30;;;-0.20;95.00;;;3.45;51.86;97159.22;5033858;28;20504;-47
2023/01/20 05:05:03;;;;;;;13.33;7.47;;;-0.20;94.50;;;3.39;51.72;97166.78;5026527;28;20038;-47
2023/01/20 05:07:31;;;;;;;11.97;7.50;;;-0.30;94.80;;;3.39;51.91;97162.34;5034233;28;20492;-47
2023/01/20 05:10:01;;;;;;;8.40;6.47;;;-0.30;95.60;;;3.41;51.75;97170.09;5034027;28;20037;-41
2023/01/20 05:12:29;;;;;;;11.13;7.07;;;-0.30;95.80;;;3.45;52.12;97172.38;5034049;28;20045;-41
2023/01/20 05:14:56;;;;;;;9.43;6.43;;;-0.20;95.80;;;3.50;51.98;97177.25;5033717;28;20397;-41
2023/01/20 05:17:24;;;;;;;7.93;5.53;;;-0.20;95.60;;;3.51;52.14;97177.13;5033837;28;20045;-41
2023/01/20 05:19:52;;;;;;;8.43;5.80;;;-0.10;95.60;;;3.53;51.77;97188.34;5033549;28;20159;-41
2023/01/20 05:22:20;;;;;;;10.23;6.07;;;-0.10;94.50;;;3.46;51.84;97195.06;5033142;28;20049;-50
2023/01/20 05:24:47;;;;;;;9.37;6.33;;;-0.20;94.60;;;3.42;51.96;97191.03;5033477;28;20042;-47
2023/01/20 05:27:15;;;;;;;8.20;5.70;;;-0.30;95.00;;;3.38;52.21;97194.06;5033701;28;20072;-50
2023/01/20 05:29:43;;;;;;;10.63;6.10;;;-0.30;95.50;;;3.36;51.87;97204.72;5033308;28;20048;-46
2023/01/20 05:32:11;;;;;;;11.77;6.30;;;-0.30;95.60;;;3.27;52.19;97206.28;5033321;28;20412;-48
2023/01/20 05:34:38;;;;;;;10.77;7.20;;;-0.40;95.30;;;3.17;52.41;97205.38;5033603;28;20053;-49
2023/01/20 05:37:06;;;;;;;7.93;5.43;;;-0.50;96.80;;;3.10;52.65;97205.06;5033225;28;20049;-46
2023/01/20 05:39:34;;;;;;;10.93;6.97;;;-0.60;96.70;;;3.12;52.13;97205.78;5033138;28;20049;-47
2023/01/20 05:42:02;;;;;;;7.87;5.20;;;-0.50;97.50;;;3.12;52.29;97213.66;5033029;28;20046;-51
2023/01/20 05:44:30;;;;;;;10.33;6.73;;;-0.50;97.00;;;3.11;52.53;97213.78;5033130;28;20052;-47
2023/01/20 05:46:57;;;;;;;12.83;6.80;;;-0.60;97.80;;;3.18;52.31;97216.72;5031874;28;20049;-47
2023/01/20 05:49:25;;;;;;;8.80;5.90;;;-0.50;97.40;;;3.18;51.93;97219.34;5031782;28;20408;-48
2023/01/20 05:51:53;;;;;;;8.80;5.63;;;-0.50;97.40;;;3.15;52.45;97220.44;5033010;28;20053;-47
2023/01/20 05:54:21;;;;;;;12.37;6.30;;;-0.50;97.40;;;3.12;52.22;97218.06;5033130;28;20045;-47
2023/01/20 05:56:48;;;;;;;10.73;6.80;;;-0.60;97.20;;;3.14;52.51;97230.16;5032838;28;20516;-48
2023/01/20 05:59:16;;;;;;;8.90;6.60;;;-0.50;97.70;;;3.15;51.97;97231.81;5032573;28;20045;-46
2023/01/20 06:01:44;;;;;;;9.50;6.13;;;-0.50;97.70;;;3.17;52.43;97230.84;5032638;28;20049;-48
2023/01/20 06:04:12;;;;;;;11.50;6.83;;;-0.50;97.50;;;3.17;52.28;97229.06;5032881;28;20049;-45
2023/01/20 06:06:40;;;;;;;9.10;5.93;;;-0.50;97.30;;;3.22;52.16;97237.41;5032674;28;20385;-46
2023/01/20 06:09:09;;;;;;;9.67;6.60;;;-0.40;97.60;;;3.23;52.34;97240.88;5032241;28;20041;-47
2023/01/20 06:11:37;;;;;;;11.90;6.97;;;-0.40;96.90;;;3.26;52.16;97235.38;5032384;28;20041;-48
2023/01/20 06:14:05;;;;;;;13.00;7.13;;;-0.40;97.20;;;3.30;51.79;97242.06;5032628;28;20046;-47
2023/01/20 06:16:33;;;;;;;10.10;6.23;;;-0.40;97.00;;;3.32;52.01;97240.13;5032658;28;20432;-48
2023/01/20 06:19:00;;;;;;;10.10;7.33;;;-0.30;97.00;;;3.32;52.17;97240.97;5032298;28;20057;-46
2023/01/20 06:21:28;;;;;;;8.80;6.67;;;-0.30;96.40;;;3.29;51.89;97243.00;5032053;28;20046;-48
2023/01/20 06:23:56;;;;;;;11.93;7.37;;;-0.30;96.50;;;3.26;52.26;97243.28;5032306;28;20052;-47
2023/01/20 06:26:24;;;;;;;9.20;6.20;;;-0.40;96.30;;;3.21;52.09;97259.41;5032609;28;20049;-46
2023/01/20 06:28:51;;;;;;;11.47;6.13;;;-0.50;97.00;;;3.17;52.49;97257.16;5032121;28;20046;-49
2023/01/20 06:31:19;;;;;;;10.30;6.57;;;-0.50;97.20;;;3.19;52.69;97261.34;5031953;28;20509;-46
2023/01/20 06:33:47;;;;;;;11.10;6.90;;;-0.50;97.50;;;3.22;52.32;97265.50;5031823;28;20065;-48
2023/01/20 06:36:16;;;;;;;9.43;6.30;;;-0.50;97.50;;;3.18;52.36;97264.94;5031951;28;20041;-48
2023/01/20 06:38:49;;;;;;;10.97;6.03;;;-0.50;98.50;;;3.19;52.59;97273.66;5031987;28;20420;-46
2023/01/20 06:41:19;;;;;;;10.03;6.33;;;-0.50;98.00;;;3.21;52.46;97274.38;5031983;28;20037;-49
2023/01/20 06:43:48;;;;;;;11.27;6.50;;;-0.50;98.10;;;3.18;52.74;97271.97;5031729;28;20048;-47
2023/01/20 06:46:16;;;;;;;9.90;5.77;;;-0.40;97.40;;;3.12;52.61;97274.16;5032018;28;20385;-49
2023/01/20 06:48:45;;;;;;;13.50;6.43;;;-0.50;97.00;;;3.15;52.55;97275.69;5031610;28;20512;-47
2023/01/20 06:51:17;;;;;;;9.90;6.57;;;-0.50;97.50;;;3.15;52.50;97280.97;5030361;28;20048;-50
2023/01/20 06:53:46;;;;;;;10.13;6.47;;;-0.50;97.50;;;3.13;52.25;97278.44;5031437;28;20045;-47
2023/01/20 06:56:14;;;;;;;9.60;6.63;;;-0.50;98.00;;;3.12;52.52;97284.69;5029774;28;20049;-47
2023/01/20 06:58:43;;;;;;;13.20;7.23;;;-0.50;98.00;;;3.09;52.63;97292.81;5030176;28;20096;-48
2023/01/20 07:01:19;;;;;;;14.83;7.80;;;-0.60;98.30;;;3.10;52.57;97291.84;5031269;28;20045;-48
2023/01/20 07:03:47;;;;;;;12.27;7.83;;;-0.60;99.00;;;3.12;52.68;97299.59;5031466;28;20060;-45
2023/01/20 07:06:38;;;;;;;12.00;7.47;;;-0.50;98.80;;;3.10;52.39;97309.41;5031711;28;20041;-49
2023/01/20 07:09:09;;;;;;;12.30;6.67;;;-0.50;98.30;;;3.18;52.52;97301.78;5031238;28;20053;-48
2023/01/20 07:11:38;;;;;;;10.30;5.93;;;-0.50;97.90;;;3.16;52.40;97303.69;5031294;28;20072;-49
2023/01/20 07:14:07;;;;;;;8.73;6.07;;;-0.50;97.90;;;3.17;52.12;97318.50;5030169;28;20045;-49
2023/01/20 07:16:35;;;;;;;11.50;6.17;;;-0.50;97.70;;;3.17;52.75;97326.38;5030265;28;20057;-50
2023/01/20 07:19:03;;;;;;;11.67;6.57;;;-0.50;97.20;;;3.15;52.14;97321.25;5030720;28;20420;-49
2023/01/20 07:21:31;;;;;;;10.73;6.43;;;-0.50;97.30;;;3.13;52.41;97331.06;5031104;28;20496;-44
2023/01/20 07:24:00;;;;;;;10.83;6.53;;;-0.50;97.00;;;3.11;51.99;97332.97;5031235;28;20057;-45
2023/01/20 07:26:29;;;;;;;12.07;6.97;;;-0.50;97.00;;;3.12;52.20;97333.81;5029871;28;20053;-46
2023/01/20 07:28:59;;;;;;;12.27;7.13;;;-0.50;96.90;;;3.09;52.30;97336.69;5029641;28;20057;-47
2023/01/20 07:31:30;;;;;;;20.33;11.13;;;-0.50;96.10;;;2.93;52.45;97337.06;5029539;28;20497;-45
2023/01/20 07:33:58;;;;;;;20.17;12.77;;;-0.70;96.90;;;2.92;52.38;97345.91;5031008;28;20045;-45
2023/01/20 07:36:26;;;;;;;23.57;13.07;;;-0.70;98.00;;;2.88;52.75;97344.47;5031041;28;20037;-46
2023/01/20 07:38:54;;;;;;;21.53;14.07;;;-0.70;97.90;;;2.84;52.82;97356.19;5030164;28;20041;-45
2023/01/20 07:41:22;;;;;;;15.13;10.60;;;-0.80;97.70;;;2.82;52.67;97351.06;5030723;28;20053;-47
2023/01/20 07:43:52;;;;;;;16.20;10.43;;;-0.80;98.30;;;2.88;52.50;97347.09;5030695;28;20046;-49
2023/01/20 07:46:20;;;;;;;13.87;9.00;;;-0.70;98.70;;;2.92;52.84;97354.63;5030823;28;20485;-49
2023/01/20 07:48:48;;;;;;;12.63;7.27;;;-0.60;98.40;;;2.98;52.73;97358.56;5030553;28;20040;-48
2023/01/20 07:51:16;;;;;;;10.60;7.07;;;-0.50;98.00;;;3.02;52.62;97362.63;5029571;28;20040;-47
2023/01/20 07:53:47;;;;;;;10.83;6.87;;;-0.50;97.40;;;3.05;52.35;97375.53;5030988;28;20067;-49
2023/01/20 07:56:25;;;;;;;13.27;6.57;;;-0.50;97.00;;;3.07;52.40;97378.91;5019603;28;20037;-46
2023/01/20 07:58:54;;;;;;;11.10;6.83;;;-0.50;97.20;;;3.09;52.29;97379.59;5030301;28;20045;-49
2023/01/20 08:01:29;;;;;;;12.77;7.20;;;-0.50;96.90;;;3.11;52.35;97384.75;5029593;28;20500;-46
2023/01/20 08:04:01;;;;;;;16.17;8.33;;;-0.40;96.90;;;3.14;52.36;97390.63;5029394;28;20085;-45
2023/01/20 08:06:30;;;;;;;10.23;7.37;;;-0.40;96.70;;;3.14;52.04;97389.75;5029574;28;20497;-47
2023/01/20 08:09:02;;;;;;;13.17;7.17;;;-0.40;96.50;;;3.15;52.51;97394.91;5028261;28;20072;-46
2023/01/20 08:11:31;;;;;;;10.17;5.93;;;-0.40;96.50;;;3.19;52.32;97392.03;5012691;28;20042;-47
2023/01/20 08:13:58;;;;;;;13.23;6.90;;;-0.40;96.40;;;3.19;52.03;97390.25;5030625;28;20049;-45
2023/01/20 08:16:26;;;;;;;9.53;5.37;;;-0.40;95.90;;;3.17;51.92;97393.97;5030623;28;20393;-45
2023/01/20 08:18:54;;;;;;;8.37;5.37;;;-0.40;96.10;;;3.12;52.30;97403.06;5030194;28;20042;-46
2023/01/20 08:21:26;;;;;;;15.43;6.53;;;-0.40;96.30;;;3.10;52.31;97407.59;5030540;28;20045;-46
2023/01/20 08:23:56;;;;;;;12.67;6.63;;;-0.50;96.80;;;3.00;52.78;97411.06;5029249;28;20052;-48
2023/01/20 08:26:26;;;;;;;17.17;8.30;;;-0.50;96.70;;;3.02;52.25;97409.97;5030271;28;20046;-48
2023/01/20 08:28:59;;;;;;;13.57;7.57;;;-0.50;97.10;;;3.06;52.36;97413.19;5029055;28;20038;-46
2023/01/20 08:31:27;;;;;;;11.63;6.40;;;-0.50;97.00;;;3.07;52.29;97414.88;5029278;28;20053;-49
2023/01/20 08:33:56;;;;;;;12.07;6.00;;;-0.50;96.70;;;3.07;52.32;97422.78;5029981;28;20046;-50
2023/01/20 08:36:29;;;;;;;12.90;7.83;;;-0.40;96.20;;;3.02;52.49;97424.91;5029270;28;20049;-46
2023/01/20 08:39:01;;;;;;;12.48;6.78;;;-0.50;96.00;;;2.99;52.65;97428.63;5029026;28;20053;-50
2023/01/20 08:41:34;;;;;;;9.10;6.03;;;-0.50;96.60;;;3.02;52.39;97430.19;5030449;28;20237;-48
2023/01/20 08:44:06;;;;;;;10.52;5.82;;;-0.50;96.70;;;3.04;52.72;97431.72;5029272;28;20420;-49
2023/01/20 08:46:36;;;;;;;8.23;5.10;;;-0.50;96.50;;;3.02;52.80;97431.00;5030279;28;20044;-50
2023/01/20 08:49:16;;;;;;;11.15;5.57;;;-0.50;96.60;;;3.03;52.71;97432.69;5030158;28;20049;-46
2023/01/20 08:51:44;;;;;;;7.10;4.60;;;-0.40;96.50;;;3.02;52.52;97436.28;5029451;28;20409;-46
2023/01/20 08:54:14;;;;;;;9.10;6.00;;;-0.40;95.90;;;3.08;52.96;97441.06;5030407;28;20056;-47
2023/01/20 08:56:42;;;;;;;7.07;5.00;;;-0.40;96.00;;;3.15;52.81;97446.69;5028823;28;20056;-45
2023/01/20 08:59:10;;;;;;;8.37;4.80;;;-0.30;96.20;;;3.19;52.71;97445.47;5029900;28;20053;-45
2023/01/20 09:01:37;;;;;;;7.20;5.00;;;-0.30;95.70;;;3.25;52.34;97458.16;5029294;28;20053;-47
2023/01/20 09:04:05;;;;;;;8.30;6.17;;;-0.20;95.60;;;3.31;52.62;97447.16;5029592;28;20069;-49
2023/01/20 09:06:52;;;;;;;9.27;5.53;;;-0.20;95.30;;;3.34;52.57;97456.63;5030078;28;20038;-48
2023/01/20 09:09:21;;;;;;;11.20;6.83;;;-0.10;94.60;;;3.42;52.21;97459.47;5023105;28;20503;-47
2023/01/20 09:11:52;;;;;;;10.00;6.90;;;-0.10;94.80;;;3.46;52.10;97453.00;5028834;28;20326;-47
2023/01/20 09:14:22;;;;;;;11.57;7.17;;;0.00;94.60;;;3.51;52.37;97455.28;5030436;28;20068;-50
2023/01/20 09:16:50;;;;;;;9.20;6.20;;;0.00;94.20;;;3.54;52.13;97455.84;5030216;28;20108;-46
2023/01/20 09:19:18;;;;;;;8.77;6.20;;;0.10;94.20;;;3.59;52.05;97457.28;5004348;28;20057;-49
2023/01/20 09:21:46;;;;;;;8.27;5.40;;;0.10;93.70;;;3.58;51.87;97455.63;5031781;28;20056;-47
2023/01/20 09:24:14;;;;;;;7.57;5.10;;;0.10;93.30;;;3.62;51.94;97462.31;5032311;28;20045;-48
2023/01/20 09:26:42;;;;;;;8.57;5.07;;;0.10;93.40;;;3.65;52.03;97468.19;5033846;28;20041;-49
2023/01/20 09:29:13;;;;;;;8.83;5.50;;;0.20;93.70;;;3.68;52.06;97477.63;5033557;28;20510;-46
2023/01/20 09:31:58;;;;;;;8.13;5.03;;;0.20;93.30;;;3.69;51.92;97476.69;5033556;28;20045;-48
2023/01/20 09:34:28;;;;;;;8.00;4.93;;;0.30;93.00;;;3.76;51.92;97472.56;5026460;28;20045;-45
2023/01/20 09:46:08;;;;;;;8.25;4.25;;;0.40;92.30;;;3.77;52.25;97483.97;5027002;28;20515;-48
2023/01/20 09:55:23;;;;;;;7.57;4.53;;;0.50;91.90;;;3.94;51.89;97488.72;5032663;28;20053;-51
2023/01/20 09:58:30;;;;;;;9.13;5.07;;;0.50;92.10;;;3.96;52.22;97492.06;5033397;28;20048;-47
2023/01/20 10:01:29;;;;;;;9.93;5.67;;;0.60;91.70;;;4.02;51.44;97490.72;5030087;28;20424;-49
2023/01/20 10:04:11;;;;;;;6.37;4.53;;;0.60;92.50;;;4.09;51.51;97500.66;5032771;28;20060;-50
2023/01/20 10:07:08;;;;;;;8.37;5.37;;;0.70;91.40;;;4.11;51.75;97500.50;5032033;28;20523;-50
2023/01/20 10:09:53;;;;;;;11.13;5.60;;;0.70;91.30;;;4.17;51.70;97501.81;5025852;28;20493;-48
2023/01/20 10:12:32;;;;;;;7.63;5.47;;;0.70;90.70;;;4.17;51.69;97501.81;5025725;28;20048;-49
2023/01/20 10:15:15;;;;;;;6.57;4.77;;;0.70;90.60;;;4.19;51.67;97502.50;5031809;28;20428;-48
2023/01/20 10:18:03;;;;;;;10.10;4.67;;;0.80;90.70;;;4.11;51.95;97505.78;5031743;28;20506;-45
2023/01/20 10:20:57;;;;;;;9.83;5.37;;;0.80;89.80;;;4.16;51.78;97506.25;5025626;28;20041;-49
2023/01/20 10:24:01;;;;;;;9.98;5.05;;;0.80;91.10;;;4.20;51.72;97510.31;5023880;28;20041;-47
2023/01/20 10:26:43;;;;;;;11.27;5.40;;;0.80;90.70;;;4.10;51.46;97510.22;5025931;28;20041;-50
2023/01/20 10:29:31;;;;;;;9.43;5.63;;;0.80;89.80;;;4.19;52.06;97513.91;5031231;28;20054;-50
2023/01/20 10:32:04;;;;;;;12.67;5.70;;;0.80;90.90;;;4.16;51.39;97516.78;5031870;28;20056;-50
2023/01/20 10:34:44;;;;;;;8.93;5.50;;;0.80;90.20;;;4.14;52.23;97509.00;5029828;28;20045;-51
2023/01/20 10:37:14;;;;;;;9.37;6.03;;;0.80;91.00;;;4.11;52.10;97511.91;5032172;28;20284;-45
2023/01/20 10:40:06;;;;;;;10.27;5.70;;;0.80;91.20;;;4.08;52.22;97508.69;5032255;28;20042;-47
2023/01/20 10:42:33;;;;;;;8.43;5.97;;;0.80;91.50;;;4.13;51.81;97512.63;5024569;28;20048;-47
2023/01/20 10:45:01;;;;;;;8.73;5.97;;;0.80;90.90;;;4.23;51.72;97511.88;5031334;28;20049;-48
2023/01/20 10:48:02;;;;;;;10.47;6.20;;;0.80;91.20;;;4.30;52.10;97510.41;5031488;28;20037;-48
2023/01/20 10:50:46;;;;;;;11.03;6.03;;;0.90;91.30;;;4.32;51.76;97511.09;5025087;28;20037;-45
2023/01/20 10:53:43;;;;;;;9.77;5.63;;;0.90;91.60;;;4.16;52.09;97508.88;5031080;28;20045;-46
2023/01/20 10:56:52;;;;;;;9.60;5.90;;;0.90;91.00;;;4.12;51.84;97513.56;5009755;28;20065;-45
2023/01/20 10:59:30;;;;;;;10.73;6.20;;;0.90;90.80;;;4.10;51.84;97520.75;5017226;28;20050;-47
2023/01/20 11:02:27;;;;;;;10.73;6.63;;;0.80;90.70;;;4.02;52.34;97512.63;5030637;28;20045;-46
2023/01/20 11:05:00;;;;;;;9.50;6.17;;;0.80;91.60;;;4.17;52.06;97512.34;5031952;28;20037;-49
2023/01/20 11:07:32;;;;;;;10.85;6.35;;;0.80;91.80;;;4.28;51.87;97510.50;5023588;28;20418;-48
2023/01/20 11:10:25;;;;;;;10.00;6.17;;;0.90;91.90;;;4.32;51.90;97519.00;5013710;28;20041;-46